sensor_id;sensor_type;location;lat;lon;timestamp;P1;durP1;ratioP1;P2;durP2;ratioP2
66559;SDS011;53413;49.878;8.142;2022-08-19T00:00:02;20.83;;;13.27;;
66559;SDS011;53413;49.878;8.142;2022-08-19T00:02:33;21.27;;;13.77;;
66559;SDS011;53413;49.878;8.142;2022-08-19T00:04:59;21.60;;;13.13;;
66559;SDS011;53413;49.878;8.142;2022-08-19T00:07:24;21.37;;;13.10;;
66559;SDS011;53413;49.878;8.142;2022-08-19T00:09:50;20.80;;;13.20;;
66559;SDS011;53413;49.878;8.142;2022-08-19T00:12:15;20.47;;;12.70;;
66559;SDS011;53413;49.878;8.142;2022-08-19T00:14:40;20.67;;;12.95;;
66559;SDS011;53413;49.878;8.142;2022-08-19T00:17:07;20.73;;;12.63;;
66559;SDS011;53413;49.878;8.142;2022-08-19T00:19:33;20.52;;;12.30;;
66559;SDS011;53413;49.878;8.142;2022-08-19T00:21:59;21.58;;;13.07;;
66559;SDS011;53413;49.878;8.142;2022-08-19T00:24:24;22.80;;;13.40;;
66559;SDS011;53413;49.878;8.142;2022-08-19T00:26:51;22.08;;;13.93;;
66559;SDS011;53413;49.878;8.142;2022-08-19T00:29:18;22.05;;;13.32;;
66559;SDS011;53413;49.878;8.142;2022-08-19T00:31:45;21.98;;;13.00;;
66559;SDS011;53413;49.878;8.142;2022-08-19T00:34:12;17.85;;;11.50;;
66559;SDS011;53413;49.878;8.142;2022-08-19T00:36:39;20.20;;;13.23;;
66559;SDS011;53413;49.878;8.142;2022-08-19T00:39:08;20.95;;;13.50;;
66559;SDS011;53413;49.878;8.142;2022-08-19T00:41:34;20.90;;;12.73;;
66559;SDS011;53413;49.878;8.142;2022-08-19T00:44:10;22.70;;;13.00;;
66559;SDS011;53413;49.878;8.142;2022-08-19T00:46:39;19.23;;;12.18;;
66559;SDS011;53413;49.878;8.142;2022-08-19T00:49:12;20.67;;;12.80;;
66559;SDS011;53413;49.878;8.142;2022-08-19T00:51:44;20.40;;;12.60;;
66559;SDS011;53413;49.878;8.142;2022-08-19T00:54:12;20.98;;;12.80;;
66559;SDS011;53413;49.878;8.142;2022-08-19T00:56:39;21.08;;;13.60;;
66559;SDS011;53413;49.878;8.142;2022-08-19T00:59:06;19.90;;;12.73;;
66559;SDS011;53413;49.878;8.142;2022-08-19T01:01:37;21.60;;;13.70;;
66559;SDS011;53413;49.878;8.142;2022-08-19T01:04:05;21.63;;;13.77;;
66559;SDS011;53413;49.878;8.142;2022-08-19T01:06:31;23.42;;;14.20;;
66559;SDS011;53413;49.878;8.142;2022-08-19T01:08:58;21.85;;;13.55;;
66559;SDS011;53413;49.878;8.142;2022-08-19T01:11:24;22.90;;;13.70;;
66559;SDS011;53413;49.878;8.142;2022-08-19T01:13:51;24.30;;;14.35;;
66559;SDS011;53413;49.878;8.142;2022-08-19T01:16:18;23.73;;;14.20;;
66559;SDS011;53413;49.878;8.142;2022-08-19T01:18:46;22.83;;;14.27;;
66559;SDS011;53413;49.878;8.142;2022-08-19T01:21:16;23.05;;;13.73;;
66559;SDS011;53413;49.878;8.142;2022-08-19T01:23:46;22.17;;;13.88;;
66559;SDS011;53413;49.878;8.142;2022-08-19T01:26:15;23.93;;;14.00;;
66559;SDS011;53413;49.878;8.142;2022-08-19T01:28:43;23.00;;;13.35;;
66559;SDS011;53413;49.878;8.142;2022-08-19T01:31:12;21.83;;;13.75;;
66559;SDS011;53413;49.878;8.142;2022-08-19T01:33:41;22.77;;;13.90;;
66559;SDS011;53413;49.878;8.142;2022-08-19T01:36:09;22.23;;;14.20;;
66559;SDS011;53413;49.878;8.142;2022-08-19T01:38:47;22.52;;;13.93;;
66559;SDS011;53413;49.878;8.142;2022-08-19T01:41:14;22.98;;;14.02;;
66559;SDS011;53413;49.878;8.142;2022-08-19T01:43:41;23.88;;;14.05;;
66559;SDS011;53413;49.878;8.142;2022-08-19T01:46:07;24.88;;;14.18;;
66559;SDS011;53413;49.878;8.142;2022-08-19T01:48:33;22.93;;;13.77;;
66559;SDS011;53413;49.878;8.142;2022-08-19T01:51:04;23.50;;;13.95;;
66559;SDS011;53413;49.878;8.142;2022-08-19T01:53:31;21.65;;;13.30;;
66559;SDS011;53413;49.878;8.142;2022-08-19T01:55:56;25.00;;;14.02;;
66559;SDS011;53413;49.878;8.142;2022-08-19T01:58:24;24.27;;;13.77;;
66559;SDS011;53413;49.878;8.142;2022-08-19T02:00:55;26.38;;;14.10;;
66559;SDS011;53413;49.878;8.142;2022-08-19T02:03:21;22.90;;;12.93;;
66559;SDS011;53413;49.878;8.142;2022-08-19T02:05:47;22.83;;;13.70;;
66559;SDS011;53413;49.878;8.142;2022-08-19T02:08:18;23.98;;;13.70;;
66559;SDS011;53413;49.878;8.142;2022-08-19T02:10:44;21.73;;;13.23;;
66559;SDS011;53413;49.878;8.142;2022-08-19T02:13:10;20.80;;;13.23;;
66559;SDS011;53413;49.878;8.142;2022-08-19T02:15:36;21.57;;;13.13;;
66559;SDS011;53413;49.878;8.142;2022-08-19T02:18:02;20.25;;;12.63;;
66559;SDS011;53413;49.878;8.142;2022-08-19T02:20:28;20.63;;;13.13;;
66559;SDS011;53413;49.878;8.142;2022-08-19T02:22:53;19.90;;;12.43;;
66559;SDS011;53413;49.878;8.142;2022-08-19T02:25:19;19.70;;;12.57;;
66559;SDS011;53413;49.878;8.142;2022-08-19T02:27:44;22.43;;;13.70;;
66559;SDS011;53413;49.878;8.142;2022-08-19T02:30:14;22.00;;;13.38;;
66559;SDS011;53413;49.878;8.142;2022-08-19T02:32:41;20.55;;;12.77;;
66559;SDS011;53413;49.878;8.142;2022-08-19T02:35:07;21.93;;;13.13;;
66559;SDS011;53413;49.878;8.142;2022-08-19T02:37:33;20.58;;;12.30;;
66559;SDS011;53413;49.878;8.142;2022-08-19T02:40:18;20.13;;;11.55;;
66559;SDS011;53413;49.878;8.142;2022-08-19T02:42:43;21.63;;;12.95;;
66559;SDS011;53413;49.878;8.142;2022-08-19T02:45:11;21.17;;;12.83;;
66559;SDS011;53413;49.878;8.142;2022-08-19T02:47:37;20.60;;;12.77;;
66559;SDS011;53413;49.878;8.142;2022-08-19T02:50:03;21.08;;;12.93;;
66559;SDS011;53413;49.878;8.142;2022-08-19T02:52:31;19.92;;;12.80;;
66559;SDS011;53413;49.878;8.142;2022-08-19T02:54:57;21.90;;;13.45;;
66559;SDS011;53413;49.878;8.142;2022-08-19T02:57:23;20.48;;;12.18;;
66559;SDS011;53413;49.878;8.142;2022-08-19T02:59:49;20.75;;;12.45;;
66559;SDS011;53413;49.878;8.142;2022-08-19T03:02:17;20.58;;;12.57;;
66559;SDS011;53413;49.878;8.142;2022-08-19T03:04:43;20.02;;;12.20;;
66559;SDS011;53413;49.878;8.142;2022-08-19T03:07:09;20.90;;;13.33;;
66559;SDS011;53413;49.878;8.142;2022-08-19T03:09:38;20.10;;;12.13;;
66559;SDS011;53413;49.878;8.142;2022-08-19T03:12:04;20.30;;;13.33;;
66559;SDS011;53413;49.878;8.142;2022-08-19T03:14:31;19.67;;;12.15;;
66559;SDS011;53413;49.878;8.142;2022-08-19T03:16:57;19.25;;;12.00;;
66559;SDS011;53413;49.878;8.142;2022-08-19T03:19:23;20.90;;;13.17;;
66559;SDS011;53413;49.878;8.142;2022-08-19T03:21:49;20.58;;;12.73;;
66559;SDS011;53413;49.878;8.142;2022-08-19T03:24:15;19.45;;;12.25;;
66559;SDS011;53413;49.878;8.142;2022-08-19T03:26:43;19.40;;;12.30;;
66559;SDS011;53413;49.878;8.142;2022-08-19T03:29:12;21.67;;;13.02;;
66559;SDS011;53413;49.878;8.142;2022-08-19T03:31:38;20.63;;;12.35;;
66559;SDS011;53413;49.878;8.142;2022-08-19T03:34:05;19.67;;;12.68;;
66559;SDS011;53413;49.878;8.142;2022-08-19T03:36:31;20.05;;;12.23;;
66559;SDS011;53413;49.878;8.142;2022-08-19T03:38:58;22.10;;;13.23;;
66559;SDS011;53413;49.878;8.142;2022-08-19T03:41:32;20.73;;;12.45;;
66559;SDS011;53413;49.878;8.142;2022-08-19T03:44:02;21.27;;;13.27;;
66559;SDS011;53413;49.878;8.142;2022-08-19T03:46:30;21.77;;;12.85;;
66559;SDS011;53413;49.878;8.142;2022-08-19T03:48:58;22.15;;;12.98;;
66559;SDS011;53413;49.878;8.142;2022-08-19T03:51:27;21.53;;;13.00;;
66559;SDS011;53413;49.878;8.142;2022-08-19T03:53:58;21.60;;;13.45;;
66559;SDS011;53413;49.878;8.142;2022-08-19T03:56:26;22.77;;;13.68;;
66559;SDS011;53413;49.878;8.142;2022-08-19T03:58:53;24.73;;;13.38;;
66559;SDS011;53413;49.878;8.142;2022-08-19T04:01:20;23.60;;;13.20;;
66559;SDS011;53413;49.878;8.142;2022-08-19T04:03:48;20.43;;;13.00;;
66559;SDS011;53413;49.878;8.142;2022-08-19T04:08:42;20.83;;;12.68;;
66559;SDS011;53413;49.878;8.142;2022-08-19T04:11:11;22.35;;;13.35;;
66559;SDS011;53413;49.878;8.142;2022-08-19T04:13:39;23.27;;;13.60;;
66559;SDS011;53413;49.878;8.142;2022-08-19T04:16:05;23.83;;;13.98;;
66559;SDS011;53413;49.878;8.142;2022-08-19T04:18:32;24.65;;;14.95;;
66559;SDS011;53413;49.878;8.142;2022-08-19T04:20:58;25.35;;;14.57;;
66559;SDS011;53413;49.878;8.142;2022-08-19T04:23:24;24.50;;;14.50;;
66559;SDS011;53413;49.878;8.142;2022-08-19T04:25:50;26.43;;;15.03;;
66559;SDS011;53413;49.878;8.142;2022-08-19T04:28:15;26.10;;;14.33;;
66559;SDS011;53413;49.878;8.142;2022-08-19T04:30:42;25.92;;;14.98;;
66559;SDS011;53413;49.878;8.142;2022-08-19T04:33:13;24.67;;;14.10;;
66559;SDS011;53413;49.878;8.142;2022-08-19T04:35:41;25.52;;;15.23;;
66559;SDS011;53413;49.878;8.142;2022-08-19T04:38:09;25.83;;;15.25;;
66559;SDS011;53413;49.878;8.142;2022-08-19T04:40:42;25.35;;;15.30;;
66559;SDS011;53413;49.878;8.142;2022-08-19T04:43:29;26.17;;;14.77;;
66559;SDS011;53413;49.878;8.142;2022-08-19T04:45:55;25.07;;;15.00;;
66559;SDS011;53413;49.878;8.142;2022-08-19T04:48:21;24.38;;;14.43;;
66559;SDS011;53413;49.878;8.142;2022-08-19T04:50:51;26.17;;;14.85;;
66559;SDS011;53413;49.878;8.142;2022-08-19T04:53:22;25.77;;;14.52;;
66559;SDS011;53413;49.878;8.142;2022-08-19T04:55:54;27.17;;;14.93;;
66559;SDS011;53413;49.878;8.142;2022-08-19T04:58:21;25.52;;;14.90;;
66559;SDS011;53413;49.878;8.142;2022-08-19T05:00:47;24.95;;;14.70;;
66559;SDS011;53413;49.878;8.142;2022-08-19T05:03:13;23.63;;;14.33;;
66559;SDS011;53413;49.878;8.142;2022-08-19T05:05:42;24.70;;;14.52;;
66559;SDS011;53413;49.878;8.142;2022-08-19T05:08:09;24.90;;;14.65;;
66559;SDS011;53413;49.878;8.142;2022-08-19T05:10:36;24.30;;;14.00;;
66559;SDS011;53413;49.878;8.142;2022-08-19T05:13:02;23.70;;;13.65;;
66559;SDS011;53413;49.878;8.142;2022-08-19T05:15:28;22.13;;;13.43;;
66559;SDS011;53413;49.878;8.142;2022-08-19T05:17:54;22.10;;;13.75;;
66559;SDS011;53413;49.878;8.142;2022-08-19T05:20:38;23.52;;;13.73;;
66559;SDS011;53413;49.878;8.142;2022-08-19T05:23:22;21.70;;;13.00;;
66559;SDS011;53413;49.878;8.142;2022-08-19T05:25:48;23.73;;;13.65;;
66559;SDS011;53413;49.878;8.142;2022-08-19T05:28:15;20.23;;;12.23;;
66559;SDS011;53413;49.878;8.142;2022-08-19T05:30:40;20.23;;;12.40;;
66559;SDS011;53413;49.878;8.142;2022-08-19T05:33:08;19.27;;;11.95;;
66559;SDS011;53413;49.878;8.142;2022-08-19T05:35:36;18.70;;;11.63;;
66559;SDS011;53413;49.878;8.142;2022-08-19T05:38:02;18.52;;;11.70;;
66559;SDS011;53413;49.878;8.142;2022-08-19T05:40:28;20.15;;;12.65;;
66559;SDS011;53413;49.878;8.142;2022-08-19T05:42:53;19.23;;;11.33;;
66559;SDS011;53413;49.878;8.142;2022-08-19T05:45:19;18.77;;;12.07;;
66559;SDS011;53413;49.878;8.142;2022-08-19T05:47:46;18.58;;;11.68;;
66559;SDS011;53413;49.878;8.142;2022-08-19T05:50:12;18.70;;;11.60;;
66559;SDS011;53413;49.878;8.142;2022-08-19T05:52:38;17.70;;;11.55;;
66559;SDS011;53413;49.878;8.142;2022-08-19T05:55:04;18.45;;;11.38;;
66559;SDS011;53413;49.878;8.142;2022-08-19T05:57:30;17.70;;;11.30;;
66559;SDS011;53413;49.878;8.142;2022-08-19T05:59:56;17.83;;;10.63;;
66559;SDS011;53413;49.878;8.142;2022-08-19T06:02:25;18.50;;;11.43;;
66559;SDS011;53413;49.878;8.142;2022-08-19T06:04:51;19.10;;;11.95;;
66559;SDS011;53413;49.878;8.142;2022-08-19T06:07:17;16.90;;;10.83;;
66559;SDS011;53413;49.878;8.142;2022-08-19T06:09:42;17.60;;;11.00;;
66559;SDS011;53413;49.878;8.142;2022-08-19T06:12:07;20.63;;;11.45;;
66559;SDS011;53413;49.878;8.142;2022-08-19T06:14:33;17.93;;;10.70;;
66559;SDS011;53413;49.878;8.142;2022-08-19T06:17:00;15.73;;;9.95;;
66559;SDS011;53413;49.878;8.142;2022-08-19T06:19:27;18.30;;;11.88;;
66559;SDS011;53413;49.878;8.142;2022-08-19T06:21:55;17.13;;;10.98;;
66559;SDS011;53413;49.878;8.142;2022-08-19T06:24:22;17.20;;;11.05;;
66559;SDS011;53413;49.878;8.142;2022-08-19T06:26:49;16.20;;;10.38;;
66559;SDS011;53413;49.878;8.142;2022-08-19T06:29:17;16.70;;;11.18;;
66559;SDS011;53413;49.878;8.142;2022-08-19T06:31:46;17.75;;;11.38;;
66559;SDS011;53413;49.878;8.142;2022-08-19T06:34:14;18.02;;;10.98;;
66559;SDS011;53413;49.878;8.142;2022-08-19T06:36:41;17.50;;;11.00;;
66559;SDS011;53413;49.878;8.142;2022-08-19T06:39:14;17.35;;;10.57;;
66559;SDS011;53413;49.878;8.142;2022-08-19T06:41:45;15.57;;;10.32;;
66559;SDS011;53413;49.878;8.142;2022-08-19T06:44:12;15.50;;;10.15;;
66559;SDS011;53413;49.878;8.142;2022-08-19T06:46:39;16.02;;;10.55;;
66559;SDS011;53413;49.878;8.142;2022-08-19T06:49:06;14.65;;;10.05;;
66559;SDS011;53413;49.878;8.142;2022-08-19T06:51:36;16.38;;;9.95;;
66559;SDS011;53413;49.878;8.142;2022-08-19T06:54:02;14.97;;;10.00;;
66559;SDS011;53413;49.878;8.142;2022-08-19T06:56:28;13.25;;;9.05;;
66559;SDS011;53413;49.878;8.142;2022-08-19T06:58:58;15.13;;;9.70;;
66559;SDS011;53413;49.878;8.142;2022-08-19T07:01:25;16.63;;;9.65;;
66559;SDS011;53413;49.878;8.142;2022-08-19T07:03:51;14.52;;;9.70;;
66559;SDS011;53413;49.878;8.142;2022-08-19T07:06:17;15.18;;;10.07;;
66559;SDS011;53413;49.878;8.142;2022-08-19T07:08:44;15.87;;;9.47;;
66559;SDS011;53413;49.878;8.142;2022-08-19T07:11:11;14.35;;;9.70;;
66559;SDS011;53413;49.878;8.142;2022-08-19T07:13:39;12.98;;;9.20;;
66559;SDS011;53413;49.878;8.142;2022-08-19T07:16:09;14.10;;;9.43;;
66559;SDS011;53413;49.878;8.142;2022-08-19T07:18:50;13.68;;;9.70;;
66559;SDS011;53413;49.878;8.142;2022-08-19T07:21:17;13.00;;;9.23;;
66559;SDS011;53413;49.878;8.142;2022-08-19T07:23:47;13.13;;;8.85;;
66559;SDS011;53413;49.878;8.142;2022-08-19T07:28:49;11.05;;;8.60;;
66559;SDS011;53413;49.878;8.142;2022-08-19T07:31:17;12.30;;;8.82;;
66559;SDS011;53413;49.878;8.142;2022-08-19T07:33:45;11.57;;;8.83;;
66559;SDS011;53413;49.878;8.142;2022-08-19T07:36:13;11.43;;;8.50;;
66559;SDS011;53413;49.878;8.142;2022-08-19T07:38:42;10.75;;;8.80;;
66559;SDS011;53413;49.878;8.142;2022-08-19T07:41:11;10.52;;;8.32;;
66559;SDS011;53413;49.878;8.142;2022-08-19T07:43:38;11.80;;;8.95;;
66559;SDS011;53413;49.878;8.142;2022-08-19T07:46:04;11.77;;;8.70;;
66559;SDS011;53413;49.878;8.142;2022-08-19T07:48:30;10.93;;;8.10;;
66559;SDS011;53413;49.878;8.142;2022-08-19T07:50:56;13.13;;;9.55;;
66559;SDS011;53413;49.878;8.142;2022-08-19T07:53:27;11.38;;;9.90;;
66559;SDS011;53413;49.878;8.142;2022-08-19T07:55:54;12.37;;;9.70;;
66559;SDS011;53413;49.878;8.142;2022-08-19T07:58:23;11.88;;;9.73;;
66559;SDS011;53413;49.878;8.142;2022-08-19T08:00:49;12.20;;;9.37;;
66559;SDS011;53413;49.878;8.142;2022-08-19T08:03:16;11.40;;;9.17;;
66559;SDS011;53413;49.878;8.142;2022-08-19T08:05:43;13.10;;;9.40;;
66559;SDS011;53413;49.878;8.142;2022-08-19T08:08:27;13.13;;;10.25;;
66559;SDS011;53413;49.878;8.142;2022-08-19T08:11:12;12.05;;;9.57;;
66559;SDS011;53413;49.878;8.142;2022-08-19T08:13:38;11.38;;;9.68;;
66559;SDS011;53413;49.878;8.142;2022-08-19T08:16:06;11.37;;;9.13;;
66559;SDS011;53413;49.878;8.142;2022-08-19T08:18:32;11.73;;;9.95;;
66559;SDS011;53413;49.878;8.142;2022-08-19T08:20:59;11.32;;;8.63;;
66559;SDS011;53413;49.878;8.142;2022-08-19T08:23:24;13.03;;;9.90;;
66559;SDS011;53413;49.878;8.142;2022-08-19T08:25:54;12.32;;;9.77;;
66559;SDS011;53413;49.878;8.142;2022-08-19T08:28:21;13.60;;;9.73;;
66559;SDS011;53413;49.878;8.142;2022-08-19T08:30:48;12.73;;;9.50;;
66559;SDS011;53413;49.878;8.142;2022-08-19T08:33:18;13.13;;;10.75;;
66559;SDS011;53413;49.878;8.142;2022-08-19T08:35:46;14.23;;;11.52;;
66559;SDS011;53413;49.878;8.142;2022-08-19T08:38:12;12.13;;;10.55;;
66559;SDS011;53413;49.878;8.142;2022-08-19T08:46:12;11.77;;;10.55;;
66559;SDS011;53413;49.878;8.142;2022-08-19T08:51:19;11.00;;;9.35;;
66559;SDS011;53413;49.878;8.142;2022-08-19T08:53:49;12.43;;;10.93;;
66559;SDS011;53413;49.878;8.142;2022-08-19T08:56:17;11.73;;;10.43;;
66559;SDS011;53413;49.878;8.142;2022-08-19T08:58:49;13.27;;;10.68;;
66559;SDS011;53413;49.878;8.142;2022-08-19T09:01:21;10.65;;;9.55;;
66559;SDS011;53413;49.878;8.142;2022-08-19T09:03:47;12.43;;;10.90;;
66559;SDS011;53413;49.878;8.142;2022-08-19T09:14:50;10.00;;;9.00;;
66559;SDS011;53413;49.878;8.142;2022-08-19T09:17:17;9.55;;;8.55;;
66559;SDS011;53413;49.878;8.142;2022-08-19T09:19:51;10.35;;;9.30;;
66559;SDS011;53413;49.878;8.142;2022-08-19T09:22:20;10.27;;;9.15;;
66559;SDS011;53413;49.878;8.142;2022-08-19T09:24:49;10.70;;;9.10;;
66559;SDS011;53413;49.878;8.142;2022-08-19T09:27:18;9.80;;;8.80;;
66559;SDS011;53413;49.878;8.142;2022-08-19T09:29:45;9.20;;;8.23;;
66559;SDS011;53413;49.878;8.142;2022-08-19T09:32:13;9.77;;;8.77;;
66559;SDS011;53413;49.878;8.142;2022-08-19T09:34:39;10.30;;;9.30;;
66559;SDS011;53413;49.878;8.142;2022-08-19T09:37:04;10.47;;;9.47;;
66559;SDS011;53413;49.878;8.142;2022-08-19T09:39:30;9.45;;;8.55;;
66559;SDS011;53413;49.878;8.142;2022-08-19T09:41:55;9.80;;;8.80;;
66559;SDS011;53413;49.878;8.142;2022-08-19T09:44:21;9.93;;;8.18;;
66559;SDS011;53413;49.878;8.142;2022-08-19T09:46:47;9.33;;;8.43;;
66559;SDS011;53413;49.878;8.142;2022-08-19T09:49:12;9.73;;;8.73;;
66559;SDS011;53413;49.878;8.142;2022-08-19T09:51:37;9.77;;;8.88;;
66559;SDS011;53413;49.878;8.142;2022-08-19T09:54:03;10.17;;;9.17;;
66559;SDS011;53413;49.878;8.142;2022-08-19T09:56:29;9.45;;;8.55;;
66559;SDS011;53413;49.878;8.142;2022-08-19T09:58:59;8.97;;;8.07;;
66559;SDS011;53413;49.878;8.142;2022-08-19T10:01:27;7.30;;;6.60;;
66559;SDS011;53413;49.878;8.142;2022-08-19T10:03:54;8.15;;;7.32;;
66559;SDS011;53413;49.878;8.142;2022-08-19T10:06:22;7.28;;;6.53;;
66559;SDS011;53413;49.878;8.142;2022-08-19T10:08:54;6.75;;;6.05;;
66559;SDS011;53413;49.878;8.142;2022-08-19T10:11:20;7.93;;;7.00;;
66559;SDS011;53413;49.878;8.142;2022-08-19T10:13:47;8.02;;;7.32;;
66559;SDS011;53413;49.878;8.142;2022-08-19T10:16:15;7.05;;;6.35;;
66559;SDS011;53413;49.878;8.142;2022-08-19T10:18:46;7.03;;;6.05;;
66559;SDS011;53413;49.878;8.142;2022-08-19T10:21:13;7.33;;;6.27;;
66559;SDS011;53413;49.878;8.142;2022-08-19T10:23:39;6.90;;;6.20;;
66559;SDS011;53413;49.878;8.142;2022-08-19T10:26:10;7.65;;;6.40;;
66559;SDS011;53413;49.878;8.142;2022-08-19T10:28:37;7.55;;;6.18;;
66559;SDS011;53413;49.878;8.142;2022-08-19T10:31:04;8.43;;;6.70;;
66559;SDS011;53413;49.878;8.142;2022-08-19T10:33:31;7.43;;;6.57;;
66559;SDS011;53413;49.878;8.142;2022-08-19T10:36:01;8.10;;;6.53;;
66559;SDS011;53413;49.878;8.142;2022-08-19T10:38:31;8.65;;;6.03;;
66559;SDS011;53413;49.878;8.142;2022-08-19T10:40:56;7.43;;;6.63;;
66559;SDS011;53413;49.878;8.142;2022-08-19T10:43:22;7.93;;;6.25;;
66559;SDS011;53413;49.878;8.142;2022-08-19T10:45:53;7.53;;;6.60;;
66559;SDS011;53413;49.878;8.142;2022-08-19T10:48:24;8.95;;;6.57;;
66559;SDS011;53413;49.878;8.142;2022-08-19T10:50:50;7.13;;;5.87;;
66559;SDS011;53413;49.878;8.142;2022-08-19T10:53:33;8.48;;;6.13;;
66559;SDS011;53413;49.878;8.142;2022-08-19T10:55:59;7.97;;;6.23;;
66559;SDS011;53413;49.878;8.142;2022-08-19T10:58:43;7.45;;;5.50;;
66559;SDS011;53413;49.878;8.142;2022-08-19T11:01:09;8.02;;;6.30;;
66559;SDS011;53413;49.878;8.142;2022-08-19T11:03:35;10.03;;;6.70;;
66559;SDS011;53413;49.878;8.142;2022-08-19T11:06:00;8.05;;;6.18;;
66559;SDS011;53413;49.878;8.142;2022-08-19T11:08:30;10.17;;;6.10;;
66559;SDS011;53413;49.878;8.142;2022-08-19T11:10:58;7.80;;;5.80;;
66559;SDS011;53413;49.878;8.142;2022-08-19T11:13:29;7.78;;;5.95;;
66559;SDS011;53413;49.878;8.142;2022-08-19T11:16:00;9.70;;;6.23;;
66559;SDS011;53413;49.878;8.142;2022-08-19T11:18:28;9.00;;;6.20;;
66559;SDS011;53413;49.878;8.142;2022-08-19T11:20:53;9.17;;;6.60;;
66559;SDS011;53413;49.878;8.142;2022-08-19T11:23:19;9.25;;;6.60;;
66559;SDS011;53413;49.878;8.142;2022-08-19T11:25:45;10.37;;;6.43;;
66559;SDS011;53413;49.878;8.142;2022-08-19T11:28:11;9.88;;;6.80;;
66559;SDS011;53413;49.878;8.142;2022-08-19T11:30:37;9.23;;;6.80;;
66559;SDS011;53413;49.878;8.142;2022-08-19T11:33:03;8.93;;;6.33;;
66559;SDS011;53413;49.878;8.142;2022-08-19T11:35:28;9.03;;;6.37;;
66559;SDS011;53413;49.878;8.142;2022-08-19T11:37:54;8.57;;;6.18;;
66559;SDS011;53413;49.878;8.142;2022-08-19T11:40:21;8.33;;;6.23;;
66559;SDS011;53413;49.878;8.142;2022-08-19T11:42:46;8.88;;;6.68;;
66559;SDS011;53413;49.878;8.142;2022-08-19T11:45:21;10.07;;;6.67;;
66559;SDS011;53413;49.878;8.142;2022-08-19T11:47:50;8.85;;;6.70;;
66559;SDS011;53413;49.878;8.142;2022-08-19T11:50:15;9.03;;;6.53;;
66559;SDS011;53413;49.878;8.142;2022-08-19T11:52:41;9.23;;;6.50;;
66559;SDS011;53413;49.878;8.142;2022-08-19T11:55:09;10.35;;;6.50;;
66559;SDS011;53413;49.878;8.142;2022-08-19T11:57:34;8.63;;;6.70;;
66559;SDS011;53413;49.878;8.142;2022-08-19T11:59:59;8.67;;;6.93;;
66559;SDS011;53413;49.878;8.142;2022-08-19T12:02:26;9.50;;;6.30;;
66559;SDS011;53413;49.878;8.142;2022-08-19T12:04:51;8.90;;;6.53;;
66559;SDS011;53413;49.878;8.142;2022-08-19T12:07:17;11.20;;;7.03;;
66559;SDS011;53413;49.878;8.142;2022-08-19T12:09:42;8.25;;;6.03;;
66559;SDS011;53413;49.878;8.142;2022-08-19T12:12:08;7.60;;;5.90;;
66559;SDS011;53413;49.878;8.142;2022-08-19T12:14:34;8.45;;;6.65;;
66559;SDS011;53413;49.878;8.142;2022-08-19T12:17:00;9.63;;;6.03;;
66559;SDS011;53413;49.878;8.142;2022-08-19T12:19:27;9.20;;;7.15;;
66559;SDS011;53413;49.878;8.142;2022-08-19T12:21:58;9.63;;;6.63;;
66559;SDS011;53413;49.878;8.142;2022-08-19T12:24:26;8.75;;;6.22;;
66559;SDS011;53413;49.878;8.142;2022-08-19T12:26:52;7.60;;;5.00;;
66559;SDS011;53413;49.878;8.142;2022-08-19T12:29:20;6.35;;;4.25;;
66559;SDS011;53413;49.878;8.142;2022-08-19T12:31:46;6.18;;;3.90;;
66559;SDS011;53413;49.878;8.142;2022-08-19T12:34:12;8.30;;;5.20;;
66559;SDS011;53413;49.878;8.142;2022-08-19T12:36:37;7.33;;;4.90;;
66559;SDS011;53413;49.878;8.142;2022-08-19T12:39:03;6.70;;;4.88;;
66559;SDS011;53413;49.878;8.142;2022-08-19T12:41:29;7.07;;;3.93;;
66559;SDS011;53413;49.878;8.142;2022-08-19T12:43:54;6.20;;;4.07;;
66559;SDS011;53413;49.878;8.142;2022-08-19T12:46:20;5.93;;;4.13;;
66559;SDS011;53413;49.878;8.142;2022-08-19T12:48:46;5.82;;;4.20;;
66559;SDS011;53413;49.878;8.142;2022-08-19T12:51:12;6.37;;;4.40;;
66559;SDS011;53413;49.878;8.142;2022-08-19T12:53:39;6.38;;;4.03;;
66559;SDS011;53413;49.878;8.142;2022-08-19T12:56:09;6.68;;;3.97;;
66559;SDS011;53413;49.878;8.142;2022-08-19T12:58:36;6.05;;;4.10;;
66559;SDS011;53413;49.878;8.142;2022-08-19T13:01:09;7.50;;;4.23;;
66559;SDS011;53413;49.878;8.142;2022-08-19T13:03:36;6.97;;;4.32;;
66559;SDS011;53413;49.878;8.142;2022-08-19T13:06:02;5.47;;;4.00;;
66559;SDS011;53413;49.878;8.142;2022-08-19T13:08:27;6.30;;;4.10;;
66559;SDS011;53413;49.878;8.142;2022-08-19T13:10:53;5.43;;;4.00;;
66559;SDS011;53413;49.878;8.142;2022-08-19T13:13:18;6.03;;;4.23;;
66559;SDS011;53413;49.878;8.142;2022-08-19T13:15:44;7.73;;;4.47;;
66559;SDS011;53413;49.878;8.142;2022-08-19T13:18:10;6.95;;;4.72;;
66559;SDS011;53413;49.878;8.142;2022-08-19T13:20:36;6.95;;;5.10;;
66559;SDS011;53413;49.878;8.142;2022-08-19T13:23:02;5.95;;;4.80;;
66559;SDS011;53413;49.878;8.142;2022-08-19T13:25:29;6.40;;;4.73;;
66559;SDS011;53413;49.878;8.142;2022-08-19T13:27:54;5.65;;;4.28;;
66559;SDS011;53413;49.878;8.142;2022-08-19T13:30:20;8.07;;;4.40;;
66559;SDS011;53413;49.878;8.142;2022-08-19T13:33:04;7.30;;;4.88;;
66559;SDS011;53413;49.878;8.142;2022-08-19T13:35:37;6.72;;;4.25;;
66559;SDS011;53413;49.878;8.142;2022-08-19T13:38:04;6.88;;;4.25;;
66559;SDS011;53413;49.878;8.142;2022-08-19T13:40:30;6.07;;;4.33;;
66559;SDS011;53413;49.878;8.142;2022-08-19T13:42:58;6.70;;;4.43;;
66559;SDS011;53413;49.878;8.142;2022-08-19T13:45:27;5.78;;;4.40;;
66559;SDS011;53413;49.878;8.142;2022-08-19T13:47:54;5.53;;;3.80;;
66559;SDS011;53413;49.878;8.142;2022-08-19T13:50:25;6.25;;;4.70;;
66559;SDS011;53413;49.878;8.142;2022-08-19T13:52:53;6.80;;;5.07;;
66559;SDS011;53413;49.878;8.142;2022-08-19T13:55:20;7.10;;;4.90;;
66559;SDS011;53413;49.878;8.142;2022-08-19T13:57:49;7.13;;;5.10;;
66559;SDS011;53413;49.878;8.142;2022-08-19T14:00:16;9.15;;;5.03;;
66559;SDS011;53413;49.878;8.142;2022-08-19T14:02:43;7.32;;;5.13;;
66559;SDS011;53413;49.878;8.142;2022-08-19T14:05:11;6.97;;;4.70;;
66559;SDS011;53413;49.878;8.142;2022-08-19T14:07:38;7.63;;;4.90;;
66559;SDS011;53413;49.878;8.142;2022-08-19T14:10:05;7.82;;;5.13;;
66559;SDS011;53413;49.878;8.142;2022-08-19T14:12:32;8.27;;;5.10;;
66559;SDS011;53413;49.878;8.142;2022-08-19T14:14:58;6.40;;;4.50;;
66559;SDS011;53413;49.878;8.142;2022-08-19T14:17:24;7.13;;;5.32;;
66559;SDS011;53413;49.878;8.142;2022-08-19T14:19:56;6.77;;;4.90;;
66559;SDS011;53413;49.878;8.142;2022-08-19T14:22:28;6.82;;;5.20;;
66559;SDS011;53413;49.878;8.142;2022-08-19T14:24:54;7.63;;;5.13;;
66559;SDS011;53413;49.878;8.142;2022-08-19T14:27:19;6.82;;;5.05;;
66559;SDS011;53413;49.878;8.142;2022-08-19T14:29:44;7.53;;;5.17;;
66559;SDS011;53413;49.878;8.142;2022-08-19T14:32:10;7.53;;;5.20;;
66559;SDS011;53413;49.878;8.142;2022-08-19T14:34:37;8.82;;;5.47;;
66559;SDS011;53413;49.878;8.142;2022-08-19T14:37:02;7.53;;;5.80;;
66559;SDS011;53413;49.878;8.142;2022-08-19T14:39:28;7.67;;;5.33;;
66559;SDS011;53413;49.878;8.142;2022-08-19T14:41:53;8.47;;;6.00;;
66559;SDS011;53413;49.878;8.142;2022-08-19T14:44:19;7.20;;;5.83;;
66559;SDS011;53413;49.878;8.142;2022-08-19T14:46:44;8.30;;;5.80;;
66559;SDS011;53413;49.878;8.142;2022-08-19T14:49:10;7.70;;;5.80;;
66559;SDS011;53413;49.878;8.142;2022-08-19T14:51:35;7.10;;;5.33;;
66559;SDS011;53413;49.878;8.142;2022-08-19T14:54:00;7.40;;;5.80;;
66559;SDS011;53413;49.878;8.142;2022-08-19T14:56:27;8.20;;;5.83;;